Weather at Salt Lake City International Airport

Public forecast

Using degrees Fahrenheit for public forecast. Weather courtesy of forecast.io.

Current aviation weather report (METAR) for Salt Lake City International Airport

Retrieved 2021/08/04 14:54 UTC (42 minutes ago):

KSLC 041454Z 17006KT 10SM SCT065 23/11 A3021 RMK AO2 SLP174 FU SCT065 FU ALQDS T02330106 51013

Aviation forecast (TAF) for Salt Lake City International Airport

Retrieved 2021/08/04 12:22 UTC (3 hours ago):

TAF KSLC 041120Z 0412/0518 16006KT P6SM FEW200 FM041800 31007KT P6SM SKC FM050300 15007KT P6SM SKC